sensor_id;sensor_type;location;lat;lon;timestamp;pressure;altitude;pressure_sealevel;temperature;humidity
8039;BME280;4062;49.844;8.120;2023-05-21T00:00:39;99147.50;;;15.51;59.03
8039;BME280;4062;49.844;8.120;2023-05-21T00:02:41;99145.72;;;15.51;58.99
8039;BME280;4062;49.844;8.120;2023-05-21T00:04:43;99144.81;;;15.51;58.92
8039;BME280;4062;49.844;8.120;2023-05-21T00:06:45;99145.72;;;15.51;58.98
8039;BME280;4062;49.844;8.120;2023-05-21T00:08:46;99143.03;;;15.51;58.97
8039;BME280;4062;49.844;8.120;2023-05-21T00:10:47;99138.66;;;15.50;58.84
8039;BME280;4062;49.844;8.120;2023-05-21T00:12:49;99134.19;;;15.51;58.98
8039;BME280;4062;49.844;8.120;2023-05-21T00:14:50;99135.06;;;15.51;58.91
8039;BME280;4062;49.844;8.120;2023-05-21T00:16:51;99135.06;;;15.51;59.05
8039;BME280;4062;49.844;8.120;2023-05-21T00:18:53;99136.78;;;15.52;59.03
8039;BME280;4062;49.844;8.120;2023-05-21T00:20:54;99132.41;;;15.51;58.91
8039;BME280;4062;49.844;8.120;2023-05-21T00:22:55;99137.72;;;15.51;58.98
8039;BME280;4062;49.844;8.120;2023-05-21T00:24:57;99128.00;;;15.50;58.95
8039;BME280;4062;49.844;8.120;2023-05-21T00:26:58;99127.06;;;15.51;58.89
8039;BME280;4062;49.844;8.120;2023-05-21T00:28:59;99125.25;;;15.52;58.87
8039;BME280;4062;49.844;8.120;2023-05-21T00:31:01;99119.94;;;15.52;58.98
8039;BME280;4062;49.844;8.120;2023-05-21T00:33:02;99118.19;;;15.51;58.84
8039;BME280;4062;49.844;8.120;2023-05-21T00:35:04;99118.19;;;15.51;58.90
8039;BME280;4062;49.844;8.120;2023-05-21T00:37:06;99115.53;;;15.51;58.84
8039;BME280;4062;49.844;8.120;2023-05-21T00:39:10;99112.88;;;15.51;58.80
8039;BME280;4062;49.844;8.120;2023-05-21T00:41:11;99111.19;;;15.50;59.02
8039;BME280;4062;49.844;8.120;2023-05-21T00:43:13;99115.53;;;15.51;59.00
8039;BME280;4062;49.844;8.120;2023-05-21T00:45:14;99111.09;;;15.51;59.00
8039;BME280;4062;49.844;8.120;2023-05-21T00:47:16;99104.88;;;15.51;58.99
8039;BME280;4062;49.844;8.120;2023-05-21T00:49:19;99101.38;;;15.50;58.84
8039;BME280;4062;49.844;8.120;2023-05-21T00:51:22;99101.38;;;15.50;58.93
8039;BME280;4062;49.844;8.120;2023-05-21T00:53:23;99107.56;;;15.51;58.97
8039;BME280;4062;49.844;8.120;2023-05-21T00:55:25;99101.38;;;15.50;58.95
8039;BME280;4062;49.844;8.120;2023-05-21T00:57:27;99102.16;;;15.52;58.98
8039;BME280;4062;49.844;8.120;2023-05-21T00:59:28;99099.56;;;15.51;58.93
8039;BME280;4062;49.844;8.120;2023-05-21T01:01:31;99094.25;;;15.51;58.88
8039;BME280;4062;49.844;8.120;2023-05-21T01:03:36;99097.78;;;15.51;58.95
8039;BME280;4062;49.844;8.120;2023-05-21T01:05:39;99095.13;;;15.51;58.90
8039;BME280;4062;49.844;8.120;2023-05-21T01:07:41;99094.25;;;15.51;58.89
8039;BME280;4062;49.844;8.120;2023-05-21T01:09:42;99099.56;;;15.51;59.05
8039;BME280;4062;49.844;8.120;2023-05-21T01:11:46;99096.06;;;15.50;58.93
8039;BME280;4062;49.844;8.120;2023-05-21T01:13:49;99092.44;;;15.51;59.06
8039;BME280;4062;49.844;8.120;2023-05-21T01:15:51;99085.41;;;15.50;59.02
8039;BME280;4062;49.844;8.120;2023-05-21T01:17:54;99088.91;;;15.51;58.92
8039;BME280;4062;49.844;8.120;2023-05-21T01:19:57;99090.63;;;15.52;58.83
8039;BME280;4062;49.844;8.120;2023-05-21T01:22:07;99089.78;;;15.51;59.05
8039;BME280;4062;49.844;8.120;2023-05-21T01:24:09;99086.25;;;15.51;58.97
8039;BME280;4062;49.844;8.120;2023-05-21T01:26:10;99084.47;;;15.51;58.98
8039;BME280;4062;49.844;8.120;2023-05-21T01:28:13;99077.41;;;15.50;59.06
8039;BME280;4062;49.844;8.120;2023-05-21T01:30:16;99085.41;;;15.50;59.05
8039;BME280;4062;49.844;8.120;2023-05-21T01:35:04;99078.25;;;15.51;59.03
8039;BME280;4062;49.844;8.120;2023-05-21T01:37:25;99080.91;;;15.51;58.99
8039;BME280;4062;49.844;8.120;2023-05-21T01:39:34;99075.59;;;15.51;59.05
8039;BME280;4062;49.844;8.120;2023-05-21T01:41:41;99071.16;;;15.51;59.02
8039;BME280;4062;49.844;8.120;2023-05-21T01:43:45;99079.13;;;15.51;59.09
8039;BME280;4062;49.844;8.120;2023-05-21T01:45:48;99070.28;;;15.51;59.04
8039;BME280;4062;49.844;8.120;2023-05-21T01:47:53;99064.94;;;15.51;59.03
8039;BME280;4062;49.844;8.120;2023-05-21T01:49:56;99066.75;;;15.50;59.12
8039;BME280;4062;49.844;8.120;2023-05-21T01:51:57;99065.81;;;15.51;58.86
8039;BME280;4062;49.844;8.120;2023-05-21T01:53:58;99072.00;;;15.52;58.99
8039;BME280;4062;49.844;8.120;2023-05-21T01:56:00;99070.28;;;15.51;58.90
8039;BME280;4062;49.844;8.120;2023-05-21T01:58:02;99068.50;;;15.51;58.97
8039;BME280;4062;49.844;8.120;2023-05-21T02:00:06;99058.78;;;15.50;58.85
8039;BME280;4062;49.844;8.120;2023-05-21T02:02:16;99058.78;;;15.50;58.89
8039;BME280;4062;49.844;8.120;2023-05-21T02:04:17;99064.09;;;15.50;58.96
8039;BME280;4062;49.844;8.120;2023-05-21T02:06:19;99057.94;;;15.50;59.03
8039;BME280;4062;49.844;8.120;2023-05-21T02:08:20;99059.63;;;15.51;58.93
8039;BME280;4062;49.844;8.120;2023-05-21T02:10:23;99052.59;;;15.50;58.72
8039;BME280;4062;49.844;8.120;2023-05-21T02:12:25;99061.44;;;15.50;58.89
8039;BME280;4062;49.844;8.120;2023-05-21T02:14:28;99054.28;;;15.51;58.98
8039;BME280;4062;49.844;8.120;2023-05-21T02:16:30;99055.19;;;15.51;59.06
8039;BME280;4062;49.844;8.120;2023-05-21T02:18:31;99057.84;;;15.51;59.03
8039;BME280;4062;49.844;8.120;2023-05-21T02:20:34;99059.63;;;15.51;59.04
8039;BME280;4062;49.844;8.120;2023-05-21T02:23:08;99056.03;;;15.52;58.98
8039;BME280;4062;49.844;8.120;2023-05-21T02:25:03;99050.78;;;15.50;58.98
8039;BME280;4062;49.844;8.120;2023-05-21T02:27:08;99054.28;;;15.51;59.02
8039;BME280;4062;49.844;8.120;2023-05-21T02:29:13;99052.59;;;15.50;59.03
8039;BME280;4062;49.844;8.120;2023-05-21T02:31:15;99055.19;;;15.51;58.85
8039;BME280;4062;49.844;8.120;2023-05-21T02:33:16;99060.59;;;15.50;58.96
8039;BME280;4062;49.844;8.120;2023-05-21T02:35:17;99053.44;;;15.50;59.00
8039;BME280;4062;49.844;8.120;2023-05-21T02:37:19;99051.63;;;15.51;58.93
8039;BME280;4062;49.844;8.120;2023-05-21T02:39:20;99053.44;;;15.50;59.08
8039;BME280;4062;49.844;8.120;2023-05-21T02:41:22;99049.94;;;15.50;58.97
8039;BME280;4062;49.844;8.120;2023-05-21T02:43:23;99052.59;;;15.50;59.00
8039;BME280;4062;49.844;8.120;2023-05-21T02:45:24;99050.78;;;15.50;58.99
8039;BME280;4062;49.844;8.120;2023-05-21T02:47:27;99049.84;;;15.51;59.00
8039;BME280;4062;49.844;8.120;2023-05-21T02:49:28;99049.84;;;15.51;58.97
8039;BME280;4062;49.844;8.120;2023-05-21T02:51:29;99047.19;;;15.51;59.11
8039;BME280;4062;49.844;8.120;2023-05-21T02:53:31;99049.84;;;15.51;59.09
8039;BME280;4062;49.844;8.120;2023-05-21T02:55:32;99048.13;;;15.50;59.04
8039;BME280;4062;49.844;8.120;2023-05-21T02:57:35;99040.97;;;15.51;59.08
8039;BME280;4062;49.844;8.120;2023-05-21T02:59:37;99048.13;;;15.50;59.02
8039;BME280;4062;49.844;8.120;2023-05-21T03:01:39;99044.63;;;15.50;59.04
8039;BME280;4062;49.844;8.120;2023-05-21T03:03:41;99045.47;;;15.50;58.97
8039;BME280;4062;49.844;8.120;2023-05-21T03:05:42;99051.63;;;15.51;59.03
8039;BME280;4062;49.844;8.120;2023-05-21T03:07:46;99052.50;;;15.51;59.08
8039;BME280;4062;49.844;8.120;2023-05-21T03:09:49;99048.13;;;15.50;59.00
8039;BME280;4062;49.844;8.120;2023-05-21T03:11:50;99040.13;;;15.50;59.02
8039;BME280;4062;49.844;8.120;2023-05-21T03:13:51;99038.31;;;15.51;59.08
8039;BME280;4062;49.844;8.120;2023-05-21T03:15:53;99045.47;;;15.50;58.88
8039;BME280;4062;49.844;8.120;2023-05-21T03:17:56;99041.94;;;15.50;58.95
8039;BME280;4062;49.844;8.120;2023-05-21T03:19:57;99044.63;;;15.50;58.86
8039;BME280;4062;49.844;8.120;2023-05-21T03:21:59;99042.81;;;15.50;58.86
8039;BME280;4062;49.844;8.120;2023-05-21T03:24:03;99044.53;;;15.51;58.88
8039;BME280;4062;49.844;8.120;2023-05-21T03:26:04;99048.13;;;15.50;59.04
8039;BME280;4062;49.844;8.120;2023-05-21T03:28:06;99044.53;;;15.51;58.96
8039;BME280;4062;49.844;8.120;2023-05-21T03:30:17;99040.97;;;15.51;58.93
8039;BME280;4062;49.844;8.120;2023-05-21T03:32:38;99037.47;;;15.50;59.00
8039;BME280;4062;49.844;8.120;2023-05-21T03:34:41;99035.66;;;15.51;58.84
8039;BME280;4062;49.844;8.120;2023-05-21T03:36:42;99033.00;;;15.51;58.98
8039;BME280;4062;49.844;8.120;2023-05-21T03:38:44;99032.16;;;15.50;58.83
8039;BME280;4062;49.844;8.120;2023-05-21T03:40:46;99026.81;;;15.50;58.91
8039;BME280;4062;49.844;8.120;2023-05-21T03:42:47;99025.88;;;15.51;58.93
8039;BME280;4062;49.844;8.120;2023-05-21T03:44:49;99029.50;;;15.50;59.10
8039;BME280;4062;49.844;8.120;2023-05-21T03:47:14;99026.81;;;15.50;58.98
8039;BME280;4062;49.844;8.120;2023-05-21T03:49:15;99033.97;;;15.50;59.06
8039;BME280;4062;49.844;8.120;2023-05-21T03:51:16;99025.09;;;15.49;58.97
8039;BME280;4062;49.844;8.120;2023-05-21T03:53:19;99023.22;;;15.51;58.93
8039;BME280;4062;49.844;8.120;2023-05-21T03:55:20;99031.31;;;15.50;58.98
8039;BME280;4062;49.844;8.120;2023-05-21T03:57:22;99032.16;;;15.50;59.04
8039;BME280;4062;49.844;8.120;2023-05-21T03:59:23;99031.22;;;15.51;58.88
8039;BME280;4062;49.844;8.120;2023-05-21T04:01:26;99037.47;;;15.50;59.08
8039;BME280;4062;49.844;8.120;2023-05-21T04:03:28;99032.16;;;15.50;58.91
8039;BME280;4062;49.844;8.120;2023-05-21T04:05:30;99026.81;;;15.50;58.97
8039;BME280;4062;49.844;8.120;2023-05-21T04:07:32;99026.81;;;15.50;59.08
8039;BME280;4062;49.844;8.120;2023-05-21T04:09:34;99033.97;;;15.50;58.93
8039;BME280;4062;49.844;8.120;2023-05-21T04:11:36;99030.34;;;15.51;58.97
8039;BME280;4062;49.844;8.120;2023-05-21T04:13:38;99033.00;;;15.51;59.02
8039;BME280;4062;49.844;8.120;2023-05-21T04:15:39;99036.53;;;15.51;59.02
8039;BME280;4062;49.844;8.120;2023-05-21T04:17:41;99042.81;;;15.50;58.90
8039;BME280;4062;49.844;8.120;2023-05-21T04:19:42;99040.13;;;15.50;59.05
8039;BME280;4062;49.844;8.120;2023-05-21T04:21:44;99040.13;;;15.50;58.93
8039;BME280;4062;49.844;8.120;2023-05-21T04:23:47;99041.88;;;15.51;58.98
8039;BME280;4062;49.844;8.120;2023-05-21T04:26:11;99036.63;;;15.50;58.92
8039;BME280;4062;49.844;8.120;2023-05-21T04:28:19;99048.13;;;15.50;59.00
8039;BME280;4062;49.844;8.120;2023-05-21T04:30:22;99034.81;;;15.50;58.99
8039;BME280;4062;49.844;8.120;2023-05-21T04:32:25;99042.81;;;15.50;58.97
8039;BME280;4062;49.844;8.120;2023-05-21T04:34:28;99045.47;;;15.50;58.90
8039;BME280;4062;49.844;8.120;2023-05-21T04:36:29;99045.47;;;15.50;58.95
8039;BME280;4062;49.844;8.120;2023-05-21T04:38:31;99049.94;;;15.50;59.04
8039;BME280;4062;49.844;8.120;2023-05-21T04:40:33;99048.13;;;15.50;59.10
8039;BME280;4062;49.844;8.120;2023-05-21T04:42:34;99053.44;;;15.50;58.92
8039;BME280;4062;49.844;8.120;2023-05-21T04:44:38;99053.44;;;15.50;58.97
8039;BME280;4062;49.844;8.120;2023-05-21T04:46:40;99053.44;;;15.50;58.86
8039;BME280;4062;49.844;8.120;2023-05-21T04:48:41;99052.59;;;15.50;58.96
8039;BME280;4062;49.844;8.120;2023-05-21T04:50:43;99052.59;;;15.50;59.08
8039;BME280;4062;49.844;8.120;2023-05-21T04:52:44;99056.13;;;15.50;58.93
8039;BME280;4062;49.844;8.120;2023-05-21T04:54:45;99047.28;;;15.50;58.93
8039;BME280;4062;49.844;8.120;2023-05-21T04:56:48;99058.78;;;15.50;59.05
8039;BME280;4062;49.844;8.120;2023-05-21T04:58:49;99050.78;;;15.50;58.80
8039;BME280;4062;49.844;8.120;2023-05-21T05:00:51;99049.84;;;15.51;59.05
8039;BME280;4062;49.844;8.120;2023-05-21T05:02:54;99048.97;;;15.51;58.96
8039;BME280;4062;49.844;8.120;2023-05-21T05:04:56;99051.63;;;15.51;58.93
8039;BME280;4062;49.844;8.120;2023-05-21T05:06:57;99046.31;;;15.51;59.00
8039;BME280;4062;49.844;8.120;2023-05-21T05:08:58;99046.31;;;15.51;58.84
8039;BME280;4062;49.844;8.120;2023-05-21T05:11:00;99048.97;;;15.51;58.99
8039;BME280;4062;49.844;8.120;2023-05-21T05:13:01;99050.78;;;15.50;58.83
8039;BME280;4062;49.844;8.120;2023-05-21T05:15:04;99044.53;;;15.51;58.96
8039;BME280;4062;49.844;8.120;2023-05-21T05:17:06;99044.53;;;15.51;58.95
8039;BME280;4062;49.844;8.120;2023-05-21T05:19:10;99047.19;;;15.51;58.91
8039;BME280;4062;49.844;8.120;2023-05-21T05:21:11;99039.19;;;15.51;59.08
8039;BME280;4062;49.844;8.120;2023-05-21T05:23:13;99037.47;;;15.50;58.96
8039;BME280;4062;49.844;8.120;2023-05-21T05:25:14;99040.97;;;15.51;59.02
8039;BME280;4062;49.844;8.120;2023-05-21T05:27:17;99037.38;;;15.52;58.94
8039;BME280;4062;49.844;8.120;2023-05-21T05:29:18;99039.19;;;15.51;58.98
8039;BME280;4062;49.844;8.120;2023-05-21T05:31:19;99040.06;;;15.52;59.02
8039;BME280;4062;49.844;8.120;2023-05-21T05:33:21;99041.88;;;15.51;58.95
8039;BME280;4062;49.844;8.120;2023-05-21T05:35:22;99045.38;;;15.52;58.96
8039;BME280;4062;49.844;8.120;2023-05-21T05:37:24;99041.88;;;15.51;58.99
8039;BME280;4062;49.844;8.120;2023-05-21T05:39:25;99041.88;;;15.51;58.79
8039;BME280;4062;49.844;8.120;2023-05-21T05:41:28;99045.38;;;15.52;58.94
8039;BME280;4062;49.844;8.120;2023-05-21T05:43:30;99047.19;;;15.51;58.92
8039;BME280;4062;49.844;8.120;2023-05-21T05:45:33;99049.84;;;15.51;58.92
8039;BME280;4062;49.844;8.120;2023-05-21T05:47:35;99044.53;;;15.51;58.98
8039;BME280;4062;49.844;8.120;2023-05-21T05:49:37;99056.03;;;15.52;58.96
8039;BME280;4062;49.844;8.120;2023-05-21T05:51:39;99054.25;;;15.52;58.91
8039;BME280;4062;49.844;8.120;2023-05-21T05:53:40;99050.69;;;15.52;59.05
8039;BME280;4062;49.844;8.120;2023-05-21T05:55:41;99053.38;;;15.52;58.96
8039;BME280;4062;49.844;8.120;2023-05-21T05:57:43;99050.69;;;15.52;58.96
8039;BME280;4062;49.844;8.120;2023-05-21T05:59:48;99051.59;;;15.52;59.04
8039;BME280;4062;49.844;8.120;2023-05-21T06:01:49;99041.88;;;15.51;58.99
8039;BME280;4062;49.844;8.120;2023-05-21T06:03:51;99048.03;;;15.52;58.94
8039;BME280;4062;49.844;8.120;2023-05-21T06:05:53;99046.25;;;15.52;58.92
8039;BME280;4062;49.844;8.120;2023-05-21T06:07:54;99045.31;;;15.53;58.87
8039;BME280;4062;49.844;8.120;2023-05-21T06:09:56;99049.75;;;15.53;58.97
8039;BME280;4062;49.844;8.120;2023-05-21T06:11:57;99051.50;;;15.54;58.83
8039;BME280;4062;49.844;8.120;2023-05-21T06:13:59;99047.97;;;15.53;59.02
8039;BME280;4062;49.844;8.120;2023-05-21T06:16:03;99058.63;;;15.53;58.94
8039;BME280;4062;49.844;8.120;2023-05-21T06:18:05;99047.09;;;15.53;58.95
8039;BME280;4062;49.844;8.120;2023-05-21T06:20:08;99049.75;;;15.53;58.98
8039;BME280;4062;49.844;8.120;2023-05-21T06:22:09;99052.38;;;15.54;58.93
8039;BME280;4062;49.844;8.120;2023-05-21T06:24:11;99049.72;;;15.54;59.00
8039;BME280;4062;49.844;8.120;2023-05-21T06:26:12;99052.38;;;15.54;59.01
8039;BME280;4062;49.844;8.120;2023-05-21T06:28:14;99047.97;;;15.53;59.02
8039;BME280;4062;49.844;8.120;2023-05-21T06:30:17;99054.16;;;15.54;58.93
8039;BME280;4062;49.844;8.120;2023-05-21T06:32:19;99051.50;;;15.54;58.81
8039;BME280;4062;49.844;8.120;2023-05-21T06:34:23;99050.56;;;15.55;58.99
8039;BME280;4062;49.844;8.120;2023-05-21T06:36:26;99055.88;;;15.55;58.89
8039;BME280;4062;49.844;8.120;2023-05-21T06:38:30;99058.53;;;15.55;58.80
8039;BME280;4062;49.844;8.120;2023-05-21T06:40:33;99047.06;;;15.54;58.89
8039;BME280;4062;49.844;8.120;2023-05-21T06:42:35;99054.06;;;15.55;58.86
8039;BME280;4062;49.844;8.120;2023-05-21T06:45:06;99055.78;;;15.56;58.87
8039;BME280;4062;49.844;8.120;2023-05-21T06:47:12;99061.13;;;15.56;58.93
8039;BME280;4062;49.844;8.120;2023-05-21T06:49:13;99058.47;;;15.56;58.76
8039;BME280;4062;49.844;8.120;2023-05-21T06:51:15;99061.91;;;15.58;58.89
8039;BME280;4062;49.844;8.120;2023-05-21T06:53:17;99065.47;;;15.59;58.91
8039;BME280;4062;49.844;8.120;2023-05-21T06:55:19;99065.47;;;15.59;58.71
8039;BME280;4062;49.844;8.120;2023-05-21T06:57:37;99061.81;;;15.60;58.79
8039;BME280;4062;49.844;8.120;2023-05-21T06:59:39;99064.50;;;15.60;58.79
8039;BME280;4062;49.844;8.120;2023-05-21T07:01:40;99055.56;;;15.61;58.87
8039;BME280;4062;49.844;8.120;2023-05-21T07:03:44;99058.22;;;15.61;58.81
8039;BME280;4062;49.844;8.120;2023-05-21T07:05:46;99063.50;;;15.62;58.82
8039;BME280;4062;49.844;8.120;2023-05-21T07:07:47;99067.94;;;15.62;58.67
8039;BME280;4062;49.844;8.120;2023-05-21T07:09:49;99067.09;;;15.61;58.70
8039;BME280;4062;49.844;8.120;2023-05-21T07:11:51;99060.84;;;15.62;58.68
8039;BME280;4062;49.844;8.120;2023-05-21T07:13:58;99056.34;;;15.63;58.76
8039;BME280;4062;49.844;8.120;2023-05-21T07:16:00;99060.75;;;15.64;58.86
8039;BME280;4062;49.844;8.120;2023-05-21T07:18:02;99062.47;;;15.65;58.75
8039;BME280;4062;49.844;8.120;2023-05-21T07:20:03;99062.47;;;15.65;58.67
8039;BME280;4062;49.844;8.120;2023-05-21T07:22:11;99057.16;;;15.65;58.73
8039;BME280;4062;49.844;8.120;2023-05-21T07:24:13;99058.00;;;15.66;58.70
8039;BME280;4062;49.844;8.120;2023-05-21T07:26:15;99059.72;;;15.67;58.77
8039;BME280;4062;49.844;8.120;2023-05-21T07:28:16;99052.66;;;15.66;58.77
8039;BME280;4062;49.844;8.120;2023-05-21T07:30:18;99058.88;;;15.66;58.79
8039;BME280;4062;49.844;8.120;2023-05-21T07:32:21;99058.88;;;15.66;58.59
8039;BME280;4062;49.844;8.120;2023-05-21T07:34:22;99052.66;;;15.66;58.70
8039;BME280;4062;49.844;8.120;2023-05-21T07:36:24;99047.34;;;15.66;58.68
8039;BME280;4062;49.844;8.120;2023-05-21T07:38:26;99050.00;;;15.66;58.48
8039;BME280;4062;49.844;8.120;2023-05-21T07:40:28;99048.28;;;15.64;58.75
8039;BME280;4062;49.844;8.120;2023-05-21T07:42:30;99049.16;;;15.65;58.78
8039;BME280;4062;49.844;8.120;2023-05-21T07:44:32;99050.81;;;15.68;58.65
8039;BME280;4062;49.844;8.120;2023-05-21T07:46:33;99055.28;;;15.67;58.63
8039;BME280;4062;49.844;8.120;2023-05-21T07:48:35;99051.69;;;15.68;58.56
8039;BME280;4062;49.844;8.120;2023-05-21T07:50:37;99048.03;;;15.69;58.74
8039;BME280;4062;49.844;8.120;2023-05-21T07:52:38;99044.53;;;15.69;58.63
8039;BME280;4062;49.844;8.120;2023-05-21T07:54:40;99049.78;;;15.70;58.64
8039;BME280;4062;49.844;8.120;2023-05-21T07:56:42;99045.31;;;15.71;58.74
8039;BME280;4062;49.844;8.120;2023-05-21T07:58:51;99040.00;;;15.71;58.71
8039;BME280;4062;49.844;8.120;2023-05-21T08:00:53;99039.13;;;15.70;58.57
8039;BME280;4062;49.844;8.120;2023-05-21T08:02:55;99038.28;;;15.70;58.61
8039;BME280;4062;49.844;8.120;2023-05-21T08:04:57;99034.72;;;15.69;58.52
8039;BME280;4062;49.844;8.120;2023-05-21T08:06:59;99036.53;;;15.69;58.65
8039;BME280;4062;49.844;8.120;2023-05-21T08:09:00;99038.38;;;15.68;58.78
8039;BME280;4062;49.844;8.120;2023-05-21T08:11:02;99039.22;;;15.69;58.70
8039;BME280;4062;49.844;8.120;2023-05-21T08:13:06;99034.72;;;15.69;58.71
8039;BME280;4062;49.844;8.120;2023-05-21T08:15:08;99039.13;;;15.70;58.67
8039;BME280;4062;49.844;8.120;2023-05-21T08:17:15;99029.41;;;15.69;58.72
8039;BME280;4062;49.844;8.120;2023-05-21T08:19:17;99039.13;;;15.70;58.61
8039;BME280;4062;49.844;8.120;2023-05-21T08:21:18;99024.97;;;15.70;58.63
8039;BME280;4062;49.844;8.120;2023-05-21T08:23:20;99027.72;;;15.68;58.76
8039;BME280;4062;49.844;8.120;2023-05-21T08:25:26;99030.38;;;15.68;58.73
8039;BME280;4062;49.844;8.120;2023-05-21T08:27:29;99029.41;;;15.69;58.64
8039;BME280;4062;49.844;8.120;2023-05-21T08:29:31;99030.38;;;15.68;58.83
8039;BME280;4062;49.844;8.120;2023-05-21T08:31:34;99031.22;;;15.69;58.50
8039;BME280;4062;49.844;8.120;2023-05-21T08:33:35;99033.03;;;15.68;58.76
8039;BME280;4062;49.844;8.120;2023-05-21T08:35:39;99033.03;;;15.68;58.70
8039;BME280;4062;49.844;8.120;2023-05-21T08:37:54;99039.28;;;15.67;58.65
8039;BME280;4062;49.844;8.120;2023-05-21T08:40:14;99035.69;;;15.68;58.79
8039;BME280;4062;49.844;8.120;2023-05-21T08:42:41;99033.97;;;15.67;58.75
8039;BME280;4062;49.844;8.120;2023-05-21T08:44:50;99037.47;;;15.68;58.72
8039;BME280;4062;49.844;8.120;2023-05-21T08:46:56;99036.63;;;15.67;58.71
8039;BME280;4062;49.844;8.120;2023-05-21T08:49:00;99030.44;;;15.67;58.68
8039;BME280;4062;49.844;8.120;2023-05-21T08:51:03;99031.31;;;15.67;58.70
8039;BME280;4062;49.844;8.120;2023-05-21T08:53:08;99035.75;;;15.67;58.85
8039;BME280;4062;49.844;8.120;2023-05-21T08:55:10;99033.09;;;15.67;58.85
8039;BME280;4062;49.844;8.120;2023-05-21T08:57:13;99033.09;;;15.67;58.80
8039;BME280;4062;49.844;8.120;2023-05-21T08:59:16;99029.59;;;15.66;58.80
8039;BME280;4062;49.844;8.120;2023-05-21T09:01:19;99030.44;;;15.67;58.83
8039;BME280;4062;49.844;8.120;2023-05-21T09:03:25;99026.91;;;15.66;58.80
8039;BME280;4062;49.844;8.120;2023-05-21T09:05:29;99028.69;;;15.66;58.75
8039;BME280;4062;49.844;8.120;2023-05-21T09:07:33;99033.97;;;15.67;58.73
8039;BME280;4062;49.844;8.120;2023-05-21T09:09:56;99027.75;;;15.67;58.80
8039;BME280;4062;49.844;8.120;2023-05-21T09:11:58;99032.25;;;15.66;58.78
8039;BME280;4062;49.844;8.120;2023-05-21T09:14:00;99033.09;;;15.67;58.75
8039;BME280;4062;49.844;8.120;2023-05-21T09:16:26;99024.25;;;15.66;58.73
8039;BME280;4062;49.844;8.120;2023-05-21T09:18:27;99026.84;;;15.68;58.89
8039;BME280;4062;49.844;8.120;2023-05-21T09:20:37;99033.09;;;15.67;58.75
8039;BME280;4062;49.844;8.120;2023-05-21T09:22:43;99033.97;;;15.67;58.86
8039;BME280;4062;49.844;8.120;2023-05-21T09:24:45;99032.16;;;15.68;58.64
8039;BME280;4062;49.844;8.120;2023-05-21T09:26:48;99028.66;;;15.67;58.84
8039;BME280;4062;49.844;8.120;2023-05-21T09:28:50;99025.97;;;15.67;58.78
8039;BME280;4062;49.844;8.120;2023-05-21T09:30:53;99026.84;;;15.68;58.69
8039;BME280;4062;49.844;8.120;2023-05-21T09:32:58;99026.84;;;15.68;58.85
8039;BME280;4062;49.844;8.120;2023-05-21T09:35:11;99025.97;;;15.67;58.82
8039;BME280;4062;49.844;8.120;2023-05-21T09:37:13;99030.38;;;15.68;58.71
8039;BME280;4062;49.844;8.120;2023-05-21T09:39:29;99028.66;;;15.67;58.79
8039;BME280;4062;49.844;8.120;2023-05-21T09:41:33;99027.75;;;15.67;58.74
8039;BME280;4062;49.844;8.120;2023-05-21T09:43:36;99029.50;;;15.68;58.73
8039;BME280;4062;49.844;8.120;2023-05-21T09:45:50;99028.66;;;15.67;58.78
8039;BME280;4062;49.844;8.120;2023-05-21T09:47:53;99018.94;;;15.66;58.99
8039;BME280;4062;49.844;8.120;2023-05-21T09:49:57;99024.16;;;15.68;58.63
8039;BME280;4062;49.844;8.120;2023-05-21T09:51:59;99026.91;;;15.66;58.70
8039;BME280;4062;49.844;8.120;2023-05-21T09:54:00;99024.16;;;15.68;58.91
8039;BME280;4062;49.844;8.120;2023-05-21T09:56:03;99017.13;;;15.67;58.90
8039;BME280;4062;49.844;8.120;2023-05-21T09:58:05;99023.31;;;15.67;58.72
8039;BME280;4062;49.844;8.120;2023-05-21T10:00:07;99012.66;;;15.67;58.69
8039;BME280;4062;49.844;8.120;2023-05-21T10:02:19;99012.66;;;15.67;58.84
8039;BME280;4062;49.844;8.120;2023-05-21T10:04:22;99020.66;;;15.67;58.78
8039;BME280;4062;49.844;8.120;2023-05-21T10:06:28;99010.00;;;15.67;58.77
8039;BME280;4062;49.844;8.120;2023-05-21T10:08:30;99007.34;;;15.67;58.78
8039;BME280;4062;49.844;8.120;2023-05-21T10:10:35;99014.41;;;15.68;58.86
8039;BME280;4062;49.844;8.120;2023-05-21T10:12:43;99011.72;;;15.68;58.69
8039;BME280;4062;49.844;8.120;2023-05-21T10:14:50;99003.75;;;15.68;58.76
8039;BME280;4062;49.844;8.120;2023-05-21T10:16:54;99007.25;;;15.69;58.88
8039;BME280;4062;49.844;8.120;2023-05-21T10:18:57;99001.94;;;15.69;58.82
8039;BME280;4062;49.844;8.120;2023-05-21T10:21:00;99000.09;;;15.69;58.71
8039;BME280;4062;49.844;8.120;2023-05-21T10:23:02;99005.44;;;15.69;58.66
8039;BME280;4062;49.844;8.120;2023-05-21T10:25:04;99002.78;;;15.69;58.78
8039;BME280;4062;49.844;8.120;2023-05-21T10:27:06;99007.25;;;15.69;58.83
8039;BME280;4062;49.844;8.120;2023-05-21T10:29:08;99008.09;;;15.69;58.75
8039;BME280;4062;49.844;8.120;2023-05-21T10:31:10;99004.59;;;15.69;58.85
8039;BME280;4062;49.844;8.120;2023-05-21T10:33:15;98998.31;;;15.70;58.62
8039;BME280;4062;49.844;8.120;2023-05-21T10:35:17;99005.44;;;15.69;58.82
8039;BME280;4062;49.844;8.120;2023-05-21T10:37:23;98999.16;;;15.70;58.85
8039;BME280;4062;49.844;8.120;2023-05-21T10:39:25;99001.00;;;15.70;58.70
8039;BME280;4062;49.844;8.120;2023-05-21T10:41:27;99001.84;;;15.70;58.77
8039;BME280;4062;49.844;8.120;2023-05-21T10:46:14;99001.84;;;15.70;58.77
8039;BME280;4062;49.844;8.120;2023-05-21T10:48:42;98999.16;;;15.70;58.69
8039;BME280;4062;49.844;8.120;2023-05-21T10:55:28;98990.34;;;15.70;58.84
8039;BME280;4062;49.844;8.120;2023-05-21T10:59:46;98995.66;;;15.70;58.85
8039;BME280;4062;49.844;8.120;2023-05-21T11:01:50;98993.84;;;15.70;58.81
8039;BME280;4062;49.844;8.120;2023-05-21T11:06:54;98993.00;;;15.70;58.71
8039;BME280;4062;49.844;8.120;2023-05-21T11:08:59;98995.66;;;15.70;58.87
8039;BME280;4062;49.844;8.120;2023-05-21T11:11:02;98996.50;;;15.70;58.78
8039;BME280;4062;49.844;8.120;2023-05-21T11:15:06;98991.19;;;15.70;58.83
8039;BME280;4062;49.844;8.120;2023-05-21T11:17:34;98990.34;;;15.70;58.81
8039;BME280;4062;49.844;8.120;2023-05-21T11:19:42;98987.66;;;15.70;58.83
8039;BME280;4062;49.844;8.120;2023-05-21T11:21:49;98981.41;;;15.71;58.75
8039;BME280;4062;49.844;8.120;2023-05-21T11:23:58;98979.69;;;15.70;58.71
8039;BME280;4062;49.844;8.120;2023-05-21T11:26:01;98988.53;;;15.70;58.70
8039;BME280;4062;49.844;8.120;2023-05-21T11:28:05;98969.88;;;15.70;58.68
8039;BME280;4062;49.844;8.120;2023-05-21T11:30:18;98991.19;;;15.70;58.79